createdAt,value
2023-01-17T00:02:20.271Z,1.53
2023-01-17T00:05:07.757Z,1.45
2023-01-17T00:07:53.589Z,1.53
2023-01-17T00:10:24.736Z,1.36
2023-01-17T00:12:56.175Z,1.36
2023-01-17T00:15:25.922Z,1.41
2023-01-17T00:17:54.958Z,1.35
2023-01-17T00:20:44.379Z,1.24
2023-01-17T00:23:35.745Z,1.16
2023-01-17T00:26:05.338Z,1.05
2023-01-17T00:28:36.199Z,0.98
2023-01-17T00:31:05.276Z,0.99
2023-01-17T00:33:33.405Z,0.90
2023-01-17T00:36:04.140Z,0.90
2023-01-17T00:38:34.368Z,0.87
2023-01-17T00:41:03.296Z,0.80
2023-01-17T00:43:50.296Z,0.71
2023-01-17T00:46:36.865Z,0.74
2023-01-17T00:49:23.462Z,0.83
2023-01-17T00:52:10.440Z,0.96
2023-01-17T00:54:56.470Z,1.04
2023-01-17T00:57:42.762Z,1.09
2023-01-17T01:00:30.019Z,1.14
2023-01-17T01:03:16.093Z,1.19
2023-01-17T01:06:02.131Z,1.16
2023-01-17T01:08:49.974Z,1.12
2023-01-17T01:11:38.739Z,1.04
2023-01-17T01:14:26.389Z,0.97
2023-01-17T01:17:12.834Z,0.95
2023-01-17T01:19:58.839Z,0.98
2023-01-17T01:22:44.793Z,1.07
2023-01-17T01:25:31.982Z,1.07
2023-01-17T01:28:23.395Z,1.05
2023-01-17T01:31:09.409Z,1.09
2023-01-17T01:33:38.152Z,1.02
2023-01-17T01:36:09.665Z,1.00
2023-01-17T01:38:38.339Z,0.99
2023-01-17T01:41:08.281Z,0.89
2023-01-17T01:43:45.563Z,0.83
2023-01-17T01:46:19.184Z,0.83
2023-01-17T01:48:56.025Z,0.77
2023-01-17T01:51:31.097Z,0.87
2023-01-17T01:54:06.716Z,0.94
2023-01-17T01:56:37.457Z,0.87
2023-01-17T01:59:11.855Z,0.86
2023-01-17T02:01:40.499Z,0.88
2023-01-17T02:04:10.878Z,0.84
2023-01-17T02:06:43.018Z,0.80
2023-01-17T02:09:16.153Z,0.77
2023-01-17T02:11:49.894Z,0.67
2023-01-17T02:14:20.555Z,0.63
2023-01-17T02:17:20.925Z,0.64
2023-01-17T02:20:30.947Z,0.58
2023-01-17T02:23:50.506Z,0.68
2023-01-17T02:26:48.903Z,0.69
2023-01-17T02:30:04.666Z,0.71
2023-01-17T02:32:48.595Z,0.72
2023-01-17T02:35:30.078Z,0.75
2023-01-17T02:38:12.399Z,0.76
2023-01-17T02:40:45.875Z,0.69
2023-01-17T02:43:17.959Z,0.62
2023-01-17T02:45:46.711Z,0.60
2023-01-17T02:48:22.901Z,0.51
2023-01-17T02:51:38.879Z,0.40
2023-01-17T02:54:33.265Z,0.41
2023-01-17T02:57:23.343Z,0.44
2023-01-17T03:00:00.624Z,0.46
2023-01-17T03:02:43.410Z,0.52
2023-01-17T03:05:21.863Z,0.56
2023-01-17T03:07:52.223Z,0.48
2023-01-17T03:10:22.034Z,0.48
2023-01-17T03:12:51.220Z,0.47
2023-01-17T03:15:19.737Z,0.48
2023-01-17T03:17:52.990Z,0.50
2023-01-17T03:20:22.846Z,0.54
2023-01-17T03:22:51.423Z,0.61
2023-01-17T03:25:20.222Z,0.59
2023-01-17T03:27:48.954Z,0.61
2023-01-17T03:30:18.060Z,0.62
2023-01-17T03:32:46.594Z,0.66
2023-01-17T03:35:15.518Z,0.68
2023-01-17T03:37:45.072Z,0.70
2023-01-17T03:40:13.935Z,0.75
2023-01-17T03:42:42.793Z,0.77
2023-01-17T03:45:12.306Z,0.74
2023-01-17T03:47:40.896Z,0.69
2023-01-17T03:50:11.231Z,0.72
2023-01-17T03:52:39.843Z,0.66
2023-01-17T03:55:10.939Z,0.68
2023-01-17T03:57:39.534Z,0.69
2023-01-17T04:00:09.533Z,0.69
2023-01-17T04:02:38.192Z,0.67
2023-01-17T04:05:07.156Z,0.70
2023-01-17T04:07:35.792Z,0.69
2023-01-17T04:10:04.998Z,0.73
2023-01-17T04:12:34.671Z,0.67
2023-01-17T04:15:03.225Z,0.64
2023-01-17T04:17:31.913Z,0.69
2023-01-17T04:20:00.477Z,0.71
2023-01-17T04:22:28.770Z,0.64
2023-01-17T04:24:57.385Z,0.65
2023-01-17T04:27:25.956Z,0.66
2023-01-17T04:29:55.526Z,0.63
2023-01-17T04:32:24.141Z,0.64
2023-01-17T04:34:52.756Z,0.57
2023-01-17T04:37:21.571Z,0.53
2023-01-17T04:39:50.244Z,0.54
2023-01-17T04:42:18.579Z,0.52
2023-01-17T04:44:47.217Z,0.50
2023-01-17T04:47:16.832Z,0.50
2023-01-17T04:49:45.405Z,0.49
2023-01-17T04:52:15.051Z,0.46
2023-01-17T04:54:43.323Z,0.43
2023-01-17T04:57:12.073Z,0.37
2023-01-17T04:59:40.625Z,0.34
2023-01-17T05:02:09.164Z,0.32
2023-01-17T05:04:39.735Z,0.30
2023-01-17T05:07:08.376Z,0.24
2023-01-17T05:09:36.694Z,0.19
2023-01-17T05:12:05.532Z,0.09
2023-01-17T05:14:34.540Z,-0.05
2023-01-17T05:17:04.078Z,-0.21
2023-01-17T05:19:32.458Z,-0.29
2023-01-17T05:22:04.311Z,-0.37
2023-01-17T05:24:32.969Z,-0.34
2023-01-17T05:27:03.352Z,-0.32
2023-01-17T05:29:32.040Z,-0.41
2023-01-17T05:32:00.666Z,-0.57
2023-01-17T05:34:29.552Z,-0.64
2023-01-17T05:36:58.344Z,-0.77
2023-01-17T05:39:27.999Z,-0.80
2023-01-17T05:41:56.763Z,-0.79
2023-01-17T05:44:25.065Z,-0.76
2023-01-17T05:46:53.348Z,-0.70
2023-01-17T05:49:21.929Z,-0.65
2023-01-17T05:51:50.703Z,-0.62
2023-01-17T05:54:19.402Z,-0.62
2023-01-17T05:56:49.020Z,-0.61
2023-01-17T05:59:25.609Z,-0.63
2023-01-17T06:02:04.723Z,-0.62
2023-01-17T06:04:33.419Z,-0.60
2023-01-17T06:07:01.987Z,-0.56
2023-01-17T06:09:30.843Z,-0.51
2023-01-17T06:12:00.415Z,-0.46
2023-01-17T06:14:29.027Z,-0.43
2023-01-17T06:16:57.675Z,-0.44
2023-01-17T06:19:26.315Z,-0.39
2023-01-17T06:21:54.565Z,-0.38
2023-01-17T06:24:23.177Z,-0.50
2023-01-17T06:26:51.877Z,-0.57
2023-01-17T06:29:21.790Z,-0.69
2023-01-17T06:31:50.087Z,-0.73
2023-01-17T06:34:18.613Z,-0.74
2023-01-17T06:36:47.178Z,-0.77
2023-01-17T06:39:15.807Z,-0.93
2023-01-17T06:41:44.396Z,-1.00
2023-01-17T06:44:13.195Z,-1.03
2023-01-17T06:46:43.428Z,-1.12
2023-01-17T06:49:12.084Z,-1.24
2023-01-17T06:51:43.452Z,-1.38
2023-01-17T06:54:12.843Z,-1.38
2023-01-17T06:56:41.464Z,-1.37
2023-01-17T06:59:10.054Z,-1.42
2023-01-17T07:01:38.722Z,-1.51
2023-01-17T07:04:08.692Z,-1.62
2023-01-17T07:06:37.583Z,-1.84
2023-01-17T07:09:06.473Z,-1.95
2023-01-17T07:11:35.066Z,-2.10
2023-01-17T07:14:03.820Z,-2.12
2023-01-17T07:16:32.512Z,-2.13
2023-01-17T07:19:01.125Z,-2.15
2023-01-17T07:21:30.722Z,-2.16
2023-01-17T07:23:59.346Z,-2.18
2023-01-17T07:26:27.922Z,-2.16
2023-01-17T07:28:56.626Z,-2.07
2023-01-17T07:31:25.379Z,-2.00
2023-01-17T07:33:54.118Z,-1.88
2023-01-17T07:36:22.710Z,-1.72
2023-01-17T07:38:52.888Z,-1.63
2023-01-17T07:41:21.315Z,-1.47
2023-01-17T07:43:49.931Z,-1.28
2023-01-17T07:46:18.934Z,-1.00
2023-01-17T07:48:47.577Z,-0.78
2023-01-17T07:51:16.206Z,-0.59
2023-01-17T07:53:44.900Z,-0.49
2023-01-17T07:56:14.596Z,-0.45
2023-01-17T07:58:43.054Z,-0.01
2023-01-17T08:01:13.900Z,0.47
2023-01-17T08:03:43.273Z,0.56
2023-01-17T08:06:19.758Z,0.86
2023-01-17T08:08:48.838Z,1.36
2023-01-17T08:11:18.567Z,1.79
2023-01-17T08:13:48.142Z,1.91
2023-01-17T08:16:16.859Z,2.33
2023-01-17T08:18:45.495Z,2.82
2023-01-17T08:21:16.867Z,3.23
2023-01-17T08:23:48.753Z,2.48
2023-01-17T08:26:22.484Z,1.69
2023-01-17T08:28:56.898Z,1.19
2023-01-17T08:31:26.009Z,1.88
2023-01-17T08:33:54.429Z,2.49
2023-01-17T08:36:22.686Z,2.92
2023-01-17T08:38:52.772Z,3.01
2023-01-17T08:41:24.035Z,2.88
2023-01-17T08:43:53.140Z,2.42
2023-01-17T08:46:21.492Z,1.91
2023-01-17T08:48:53.815Z,1.55
2023-01-17T08:51:22.466Z,1.54
2023-01-17T08:53:51.441Z,1.62
2023-01-17T08:56:20.134Z,1.48
2023-01-17T08:58:49.768Z,1.47
2023-01-17T09:01:18.102Z,1.48
2023-01-17T09:03:46.839Z,1.41
2023-01-17T09:06:17.518Z,1.36
2023-01-17T09:08:46.965Z,1.21
2023-01-17T09:11:18.261Z,1.10
2023-01-17T09:13:46.921Z,1.19
2023-01-17T09:16:16.635Z,1.28
2023-01-17T09:18:45.218Z,1.40
2023-01-17T09:21:15.598Z,1.52
2023-01-17T09:23:44.904Z,1.64
2023-01-17T09:26:20.439Z,1.97
2023-01-17T09:28:49.072Z,1.99
2023-01-17T09:31:20.722Z,1.68
2023-01-17T09:33:49.511Z,1.93
2023-01-17T09:36:18.438Z,2.06
2023-01-17T09:38:47.650Z,2.15
2023-01-17T09:41:27.681Z,1.67
2023-01-17T09:44:04.187Z,1.91
2023-01-17T09:46:40.053Z,1.73
2023-01-17T09:49:12.995Z,1.90
2023-01-17T09:51:42.687Z,1.88
2023-01-17T09:54:23.358Z,1.89
2023-01-17T09:57:04.343Z,1.87
2023-01-17T10:00:02.433Z,1.92
2023-01-17T10:03:06.134Z,1.77
2023-01-17T10:05:54.104Z,1.97
2023-01-17T10:08:42.774Z,1.93
2023-01-17T10:11:36.263Z,1.97
2023-01-17T10:14:37.524Z,1.99
2023-01-17T10:17:17.870Z,2.19
2023-01-17T10:20:09.079Z,2.16
2023-01-17T10:23:09.162Z,1.87
2023-01-17T10:25:47.494Z,1.79
2023-01-17T10:28:21.497Z,1.88
2023-01-17T10:30:53.046Z,2.01
2023-01-17T10:33:23.269Z,2.16
2023-01-17T10:35:57.841Z,2.19
2023-01-17T10:38:33.535Z,2.28
2023-01-17T10:41:09.538Z,2.21
2023-01-17T10:43:50.429Z,2.17
2023-01-17T10:46:28.445Z,2.36
2023-01-17T10:48:58.492Z,2.35
2023-01-17T10:51:59.962Z,2.24
2023-01-17T10:54:52.021Z,2.24
2023-01-17T10:57:25.135Z,2.23
2023-01-17T10:59:58.909Z,2.27
2023-01-17T11:02:31.342Z,2.16
2023-01-17T11:05:05.581Z,2.01
2023-01-17T11:07:35.536Z,2.14
2023-01-17T11:10:04.212Z,2.29
2023-01-17T11:12:36.109Z,2.33
2023-01-17T11:15:19.841Z,2.27
2023-01-17T11:17:53.256Z,2.20
2023-01-17T11:20:28.022Z,2.46
2023-01-17T11:23:13.986Z,2.43
2023-01-17T11:25:51.002Z,2.36
2023-01-17T11:28:26.266Z,2.32
2023-01-17T11:30:58.285Z,2.19
2023-01-17T11:33:45.112Z,2.11
2023-01-17T11:36:22.834Z,2.24
2023-01-17T11:39:02.932Z,2.29
2023-01-17T11:41:37.413Z,2.28
2023-01-17T11:44:24.092Z,2.41
2023-01-17T11:47:19.187Z,2.47
2023-01-17T11:49:49.651Z,2.62
2023-01-17T11:52:27.291Z,2.73
2023-01-17T11:54:57.326Z,2.82
2023-01-17T11:57:28.899Z,2.73
2023-01-17T12:00:11.675Z,2.63
2023-01-17T12:03:18.920Z,2.60
2023-01-17T12:06:02.641Z,2.72
2023-01-17T12:08:56.432Z,2.72
2023-01-17T12:11:37.216Z,2.83
2023-01-17T12:14:18.765Z,2.93
2023-01-17T12:17:11.556Z,2.84
2023-01-17T12:20:01.102Z,2.92
2023-01-17T12:23:05.641Z,2.99
2023-01-17T12:26:11.031Z,3.16
2023-01-17T12:29:44.713Z,3.30
2023-01-17T12:32:41.643Z,3.25
2023-01-17T12:35:16.360Z,3.51
2023-01-17T12:37:52.656Z,3.94
2023-01-17T12:40:33.944Z,4.81
2023-01-17T12:43:13.250Z,5.58
2023-01-17T12:45:45.710Z,5.74
2023-01-17T12:48:18.405Z,5.71
2023-01-17T12:50:55.669Z,5.12
2023-01-17T12:53:36.125Z,5.21
2023-01-17T12:56:15.688Z,5.32
2023-01-17T12:58:49.291Z,5.14
2023-01-17T13:01:29.396Z,4.74
2023-01-17T13:04:17.795Z,4.52
2023-01-17T13:07:06.420Z,4.50
2023-01-17T13:09:42.601Z,4.30
2023-01-17T13:12:16.622Z,4.10
2023-01-17T13:14:47.935Z,4.03
2023-01-17T13:17:35.997Z,3.94
2023-01-17T13:20:14.194Z,3.98
2023-01-17T13:22:44.358Z,4.19
2023-01-17T13:25:29.818Z,4.16
2023-01-17T13:28:17.451Z,4.14
2023-01-17T13:31:22.672Z,3.99
2023-01-17T13:34:39.319Z,3.82
2023-01-17T13:37:47.384Z,3.90
2023-01-17T13:40:37.503Z,3.80
2023-01-17T13:43:14.476Z,3.92
2023-01-17T13:45:53.049Z,4.05
2023-01-17T13:48:33.564Z,3.83
2023-01-17T13:51:06.458Z,3.76
2023-01-17T13:53:59.464Z,3.59
2023-01-17T13:56:36.668Z,3.46
2023-01-17T13:59:31.432Z,3.58
2023-01-17T14:02:00.050Z,3.55
2023-01-17T14:05:09.256Z,3.27
2023-01-17T14:07:45.760Z,3.26
2023-01-17T14:10:31.753Z,3.21
2023-01-17T14:13:00.775Z,3.14
2023-01-17T14:15:33.136Z,2.91
2023-01-17T14:18:03.726Z,2.88
2023-01-17T14:20:52.204Z,3.19
2023-01-17T14:23:52.682Z,3.85
2023-01-17T14:26:41.290Z,4.76
2023-01-17T14:29:54.687Z,5.55
2023-01-17T14:32:28.283Z,6.17
2023-01-17T14:34:57.336Z,6.27
2023-01-17T14:37:39.401Z,5.53
2023-01-17T14:40:21.541Z,4.76
2023-01-17T14:42:59.966Z,4.07
2023-01-17T14:45:31.183Z,3.43
2023-01-17T14:48:02.202Z,2.77
2023-01-17T14:50:37.311Z,2.43
2023-01-17T14:53:18.582Z,2.14
2023-01-17T14:56:02.000Z,1.95
2023-01-17T14:58:32.197Z,1.71
2023-01-17T15:01:03.828Z,1.59
2023-01-17T15:03:42.764Z,1.46
2023-01-17T15:06:15.025Z,1.26
2023-01-17T15:08:43.791Z,1.21
2023-01-17T15:11:21.959Z,1.06
2023-01-17T15:13:54.191Z,1.09
2023-01-17T15:16:26.901Z,0.90
2023-01-17T15:18:57.214Z,0.80
2023-01-17T15:21:29.725Z,0.70
2023-01-17T15:24:01.405Z,0.66
2023-01-17T15:26:35.544Z,0.72
2023-01-17T15:29:08.278Z,0.69
2023-01-17T15:31:44.095Z,0.59
2023-01-17T15:34:25.898Z,0.47
2023-01-17T15:36:56.970Z,0.42
2023-01-17T15:39:30.349Z,0.27
2023-01-17T15:42:03.975Z,0.23
2023-01-17T15:44:47.492Z,0.24
2023-01-17T15:47:30.146Z,0.26
2023-01-17T15:49:59.674Z,0.22
2023-01-17T15:52:29.133Z,0.22
2023-01-17T15:55:12.508Z,0.21
2023-01-17T15:57:47.542Z,0.22
2023-01-17T16:00:26.363Z,0.32
2023-01-17T16:02:57.781Z,0.37
2023-01-17T16:05:44.690Z,0.34
2023-01-17T16:08:29.777Z,0.26
2023-01-17T16:11:02.311Z,0.09
2023-01-17T16:13:35.703Z,0.02
2023-01-17T16:16:22.392Z,0.02
2023-01-17T16:18:58.740Z,0.11
2023-01-17T16:21:29.435Z,0.14
2023-01-17T16:23:59.275Z,0.13
2023-01-17T16:26:29.512Z,0.10
2023-01-17T16:28:59.190Z,0.11
2023-01-17T16:31:27.596Z,0.18
2023-01-17T16:33:56.078Z,0.13
2023-01-17T16:36:24.715Z,0.15
2023-01-17T16:38:53.695Z,0.11
2023-01-17T16:41:22.928Z,0.02
2023-01-17T16:44:02.049Z,0.04
2023-01-17T16:46:31.142Z,-0.05
2023-01-17T16:49:02.052Z,-0.19
2023-01-17T16:51:30.463Z,-0.27
2023-01-17T16:53:59.512Z,-0.22
2023-01-17T16:56:28.179Z,-0.23
2023-01-17T16:59:12.521Z,-0.31
2023-01-17T17:01:41.713Z,-0.32
2023-01-17T17:04:12.930Z,-0.32
2023-01-17T17:06:41.638Z,-0.34
2023-01-17T17:09:10.220Z,-0.32
2023-01-17T17:11:38.607Z,-0.34
2023-01-17T17:14:07.370Z,-0.36
2023-01-17T17:16:39.034Z,-0.30
2023-01-17T17:19:09.672Z,-0.24
2023-01-17T17:21:38.665Z,-0.15
2023-01-17T17:24:07.690Z,-0.10
2023-01-17T17:26:37.835Z,-0.08
2023-01-17T17:29:10.416Z,-0.06
2023-01-17T17:31:42.956Z,-0.08
2023-01-17T17:34:14.375Z,-0.11
2023-01-17T17:36:43.579Z,-0.12
2023-01-17T17:39:14.802Z,-0.12
2023-01-17T17:41:45.859Z,-0.18
2023-01-17T17:44:14.703Z,-0.20
2023-01-17T17:46:44.832Z,-0.26
2023-01-17T17:49:13.541Z,-0.30
2023-01-17T17:51:42.403Z,-0.34
2023-01-17T17:54:13.735Z,-0.37
2023-01-17T17:56:46.476Z,-0.37
2023-01-17T17:59:19.573Z,-0.37
2023-01-17T18:01:49.644Z,-0.35
2023-01-17T18:04:19.382Z,-0.37
2023-01-17T18:06:48.090Z,-0.38
2023-01-17T18:09:17.220Z,-0.31
2023-01-17T18:11:46.678Z,-0.26
2023-01-17T18:14:17.811Z,-0.23
2023-01-17T18:16:48.049Z,-0.25
2023-01-17T18:19:18.830Z,-0.29
2023-01-17T18:21:48.685Z,-0.28
2023-01-17T18:24:19.056Z,-0.28
2023-01-17T18:26:49.961Z,-0.28
2023-01-17T18:29:20.875Z,-0.30
2023-01-17T18:31:52.166Z,-0.28
2023-01-17T18:34:24.045Z,-0.29
2023-01-17T18:36:53.514Z,-0.34
2023-01-17T18:39:24.655Z,-0.32
2023-01-17T18:41:53.191Z,-0.39
2023-01-17T18:44:22.678Z,-0.42
2023-01-17T18:46:54.750Z,-0.44
2023-01-17T18:49:23.428Z,-0.43
2023-01-17T18:51:52.102Z,-0.46
2023-01-17T18:54:22.118Z,-0.48
2023-01-17T18:56:51.068Z,-0.48
2023-01-17T18:59:20.424Z,-0.46
2023-01-17T19:01:49.549Z,-0.44
2023-01-17T19:04:20.067Z,-0.35
2023-01-17T19:06:49.872Z,-0.32
2023-01-17T19:09:19.464Z,-0.27
2023-01-17T19:11:48.222Z,-0.21
2023-01-17T19:14:16.592Z,-0.15
2023-01-17T19:16:45.500Z,-0.17
2023-01-17T19:19:16.745Z,-0.16
2023-01-17T19:21:46.514Z,-0.15
2023-01-17T19:24:15.374Z,-0.12
2023-01-17T19:26:45.582Z,-0.07
2023-01-17T19:29:15.465Z,-0.11
2023-01-17T19:31:44.213Z,-0.11
2023-01-17T19:34:14.748Z,-0.10
2023-01-17T19:36:44.895Z,-0.10
2023-01-17T19:39:15.535Z,-0.09
2023-01-17T19:41:46.435Z,-0.10
2023-01-17T19:44:16.110Z,-0.06
2023-01-17T19:46:48.755Z,-0.01
2023-01-17T19:49:20.660Z,-0.02
2023-01-17T19:51:50.114Z,0.01
2023-01-17T19:54:20.379Z,0.06
2023-01-17T19:56:49.099Z,0.12
2023-01-17T19:59:20.206Z,0.13
2023-01-17T20:01:49.156Z,0.12
2023-01-17T20:04:18.626Z,0.12
2023-01-17T20:06:47.891Z,0.14
2023-01-17T20:09:16.559Z,0.17
2023-01-17T20:11:46.767Z,0.20
2023-01-17T20:14:16.564Z,0.26
2023-01-17T20:16:47.562Z,0.22
2023-01-17T20:19:16.291Z,0.22
2023-01-17T20:21:44.917Z,0.13
2023-01-17T20:24:14.847Z,0.06
2023-01-17T20:26:44.113Z,0.06
2023-01-17T20:29:16.715Z,0.02
2023-01-17T20:31:46.982Z,-0.01
2023-01-17T20:34:18.727Z,-0.03
2023-01-17T20:36:47.729Z,-0.08
2023-01-17T20:39:16.937Z,-0.15
2023-01-17T20:41:46.377Z,-0.25
2023-01-17T20:44:18.640Z,-0.32
2023-01-17T20:46:48.186Z,-0.40
2023-01-17T20:49:19.988Z,-0.46
2023-01-17T20:51:49.143Z,-0.54
2023-01-17T20:54:23.442Z,-0.58
2023-01-17T20:56:52.076Z,-0.57
2023-01-17T20:59:23.436Z,-0.56
2023-01-17T21:01:52.472Z,-0.56
2023-01-17T21:04:25.719Z,-0.56
2023-01-17T21:06:55.265Z,-0.56
2023-01-17T21:09:24.343Z,-0.62
2023-01-17T21:11:54.371Z,-0.62
2023-01-17T21:14:24.016Z,-0.65
2023-01-17T21:16:52.719Z,-0.75
2023-01-17T21:19:21.437Z,-0.80
2023-01-17T21:21:50.194Z,-0.81
2023-01-17T21:24:20.120Z,-0.79
2023-01-17T21:26:51.444Z,-0.74
2023-01-17T21:29:20.343Z,-0.72
2023-01-17T21:31:50.292Z,-0.73
2023-01-17T21:34:18.948Z,-0.77
2023-01-17T21:36:47.972Z,-0.80
2023-01-17T21:39:19.814Z,-0.83
2023-01-17T21:41:50.740Z,-0.86
2023-01-17T21:44:21.899Z,-0.79
2023-01-17T21:46:56.012Z,-0.84
2023-01-17T21:49:25.067Z,-0.91
2023-01-17T21:52:10.924Z,-1.01
2023-01-17T21:54:57.309Z,-1.08
2023-01-17T21:57:43.218Z,-1.07
2023-01-17T22:00:15.453Z,-1.10
2023-01-17T22:02:46.168Z,-1.13
2023-01-17T22:05:16.445Z,-1.19
2023-01-17T22:08:06.385Z,-1.27
2023-01-17T22:10:44.513Z,-1.35
2023-01-17T22:13:14.911Z,-1.41
2023-01-17T22:15:43.894Z,-1.51
2023-01-17T22:18:14.553Z,-1.70
2023-01-17T22:20:43.658Z,-1.77
2023-01-17T22:23:12.557Z,-1.82
2023-01-17T22:25:41.216Z,-1.82
2023-01-17T22:28:09.922Z,-1.82
2023-01-17T22:30:38.581Z,-1.85
2023-01-17T22:33:07.294Z,-1.90
2023-01-17T22:35:40.180Z,-1.91
2023-01-17T22:38:08.612Z,-1.91
2023-01-17T22:40:38.252Z,-1.98
2023-01-17T22:43:06.864Z,-2.13
2023-01-17T22:45:35.379Z,-2.32
2023-01-17T22:48:04.143Z,-2.47
2023-01-17T22:50:33.215Z,-2.53
2023-01-17T22:53:03.241Z,-2.54
2023-01-17T22:55:46.735Z,-2.69
2023-01-17T22:58:15.375Z,-2.80
2023-01-17T23:00:43.730Z,-2.84
2023-01-17T23:03:12.481Z,-2.78
2023-01-17T23:05:46.501Z,-2.77
2023-01-17T23:08:16.464Z,-2.86
2023-01-17T23:11:02.587Z,-2.90
2023-01-17T23:13:31.447Z,-2.97
2023-01-17T23:16:22.648Z,-3.11
2023-01-17T23:19:08.698Z,-3.26
2023-01-17T23:21:54.690Z,-3.29
2023-01-17T23:24:24.674Z,-3.30
2023-01-17T23:27:07.168Z,-3.32
2023-01-17T23:29:35.530Z,-3.37
2023-01-17T23:32:04.120Z,-3.45
2023-01-17T23:34:32.745Z,-3.36
2023-01-17T23:37:01.625Z,-3.21
2023-01-17T23:39:31.363Z,-3.07
2023-01-17T23:42:17.374Z,-2.92
2023-01-17T23:44:46.162Z,-2.82
2023-01-17T23:47:15.396Z,-2.72
2023-01-17T23:49:45.466Z,-2.61
2023-01-17T23:52:14.123Z,-2.54
2023-01-17T23:54:44.129Z,-2.49
2023-01-17T23:57:12.439Z,-2.37
2023-01-17T23:59:40.732Z,-2.36
